createdAt,value
2018-09-21T00:02:00.889Z,84.91
2018-09-21T00:04:29.324Z,85.05
2018-09-21T00:06:57.811Z,84.52
2018-09-21T00:09:26.257Z,84.51
2018-09-21T00:11:54.803Z,85.28
2018-09-21T00:14:23.277Z,84.67
2018-09-21T00:16:51.831Z,85.48
2018-09-21T00:19:20.353Z,85.37
2018-09-21T00:21:48.878Z,85.05
2018-09-21T00:24:17.317Z,84.98
2018-09-21T00:26:45.797Z,85.24
2018-09-21T00:29:14.637Z,85.99
2018-09-21T00:31:43.104Z,85.56
2018-09-21T00:34:11.601Z,85.04
2018-09-21T00:36:40.078Z,84.20
2018-09-21T00:39:09.809Z,85.53
2018-09-21T00:41:38.245Z,85.35
2018-09-21T00:44:07.247Z,85.54
2018-09-21T00:46:35.815Z,85.00
2018-09-21T00:49:04.227Z,85.79
2018-09-21T00:51:32.736Z,85.73
2018-09-21T00:54:01.176Z,86.23
2018-09-21T00:56:30.266Z,85.65
2018-09-21T00:58:58.675Z,85.58
2018-09-21T01:01:27.097Z,85.55
2018-09-21T01:03:56.387Z,86.36
2018-09-21T01:06:24.829Z,86.87
2018-09-21T01:08:53.301Z,86.39
2018-09-21T01:11:21.796Z,86.21
2018-09-21T01:13:50.273Z,85.84
2018-09-21T01:16:18.768Z,85.19
2018-09-21T01:18:47.248Z,86.24
2018-09-21T01:21:15.721Z,85.95
2018-09-21T01:23:44.220Z,86.60
2018-09-21T01:26:12.692Z,85.79
2018-09-21T01:28:41.303Z,84.91
2018-09-21T01:31:09.731Z,86.97
2018-09-21T01:33:38.149Z,85.99
2018-09-21T01:36:06.249Z,86.74
2018-09-21T01:38:35.832Z,87.05
2018-09-21T01:41:04.283Z,86.51
2018-09-21T01:43:32.835Z,87.15
2018-09-21T01:46:03.870Z,86.76
2018-09-21T01:48:32.364Z,86.04
2018-09-21T01:51:00.825Z,87.43
2018-09-21T01:53:29.333Z,87.25
2018-09-21T01:55:57.752Z,86.84
2018-09-21T01:58:26.892Z,86.95
2018-09-21T02:00:55.319Z,86.95
2018-09-21T02:03:23.812Z,87.37
2018-09-21T02:05:52.265Z,86.71
2018-09-21T02:08:20.733Z,86.62
2018-09-21T02:10:49.159Z,87.34
2018-09-21T02:13:17.607Z,87.37
2018-09-21T02:15:46.041Z,86.29
2018-09-21T02:18:14.526Z,85.41
2018-09-21T02:20:43.005Z,86.16
2018-09-21T02:23:11.507Z,86.30
2018-09-21T02:25:40.025Z,85.45
2018-09-21T02:28:08.502Z,85.93
2018-09-21T02:30:36.963Z,86.45
2018-09-21T02:33:05.385Z,86.88
2018-09-21T02:35:33.895Z,85.86
2018-09-21T02:38:02.571Z,87.54
2018-09-21T02:40:31.019Z,87.15
2018-09-21T02:42:59.468Z,87.11
2018-09-21T02:45:27.943Z,86.44
2018-09-21T02:47:56.445Z,86.27
2018-09-21T02:50:24.844Z,87.49
2018-09-21T02:52:53.333Z,86.77
2018-09-21T02:55:21.787Z,87.62
2018-09-21T02:57:50.442Z,87.53
2018-09-21T03:00:19.120Z,87.50
2018-09-21T03:02:47.650Z,86.43
2018-09-21T03:05:16.156Z,85.89
2018-09-21T03:07:45.063Z,86.57
2018-09-21T03:10:15.924Z,87.33
2018-09-21T03:12:44.431Z,86.73
2018-09-21T03:15:12.845Z,87.71
2018-09-21T03:17:41.324Z,86.64
2018-09-21T03:20:09.880Z,86.90
2018-09-21T03:22:38.427Z,87.12
2018-09-21T03:25:07.509Z,87.11
2018-09-21T03:27:35.996Z,87.02
2018-09-21T03:30:05.309Z,86.63
2018-09-21T03:32:33.795Z,87.23
2018-09-21T03:35:02.274Z,86.91
2018-09-21T03:37:30.765Z,87.72
2018-09-21T03:39:59.255Z,88.27
2018-09-21T03:42:28.429Z,87.22
2018-09-21T03:44:56.993Z,88.21
2018-09-21T03:47:25.499Z,88.42
2018-09-21T03:49:54.114Z,87.95
2018-09-21T03:52:22.601Z,87.61
2018-09-21T03:54:51.092Z,87.51
2018-09-21T03:57:19.593Z,87.28
2018-09-21T03:59:48.082Z,87.34
2018-09-21T04:02:16.590Z,87.24
2018-09-21T04:04:45.138Z,86.93
2018-09-21T04:07:13.607Z,86.60
2018-09-21T04:09:42.097Z,86.35
2018-09-21T04:12:10.516Z,87.62
2018-09-21T04:14:38.920Z,86.34
2018-09-21T04:17:07.483Z,87.03
2018-09-21T04:19:37.047Z,87.78
2018-09-21T04:22:05.481Z,86.74
2018-09-21T04:24:34.190Z,87.39
2018-09-21T04:27:02.640Z,87.34
2018-09-21T04:29:31.074Z,86.60
2018-09-21T04:31:59.577Z,85.54
2018-09-21T04:34:28.082Z,86.48
2018-09-21T04:36:56.573Z,86.85
2018-09-21T04:39:25.030Z,85.92
2018-09-21T04:41:53.491Z,86.03
2018-09-21T04:44:21.948Z,85.87
2018-09-21T04:46:50.409Z,86.61
2018-09-21T04:49:18.898Z,87.61
2018-09-21T04:51:47.353Z,89.02
2018-09-21T04:54:16.260Z,88.05
2018-09-21T04:56:45.487Z,88.24
2018-09-21T04:59:14.628Z,87.87
2018-09-21T05:01:43.151Z,87.65
2018-09-21T05:04:12.628Z,87.06
2018-09-21T05:06:41.010Z,87.52
2018-09-21T05:09:10.328Z,88.20
2018-09-21T05:11:38.811Z,86.76
2018-09-21T05:14:07.331Z,87.04
2018-09-21T05:16:35.861Z,86.64
2018-09-21T05:19:04.336Z,86.34
2018-09-21T05:21:32.939Z,87.00
2018-09-21T05:24:01.740Z,85.94
2018-09-21T05:26:30.399Z,86.70
2018-09-21T05:28:58.903Z,87.82
2018-09-21T05:31:27.475Z,87.17
2018-09-21T05:33:55.978Z,87.86
2018-09-21T05:36:24.492Z,87.66
2018-09-21T05:38:52.988Z,86.82
2018-09-21T05:41:22.021Z,86.29
2018-09-21T05:43:50.455Z,86.48
2018-09-21T05:46:18.953Z,86.27
2018-09-21T05:48:47.457Z,86.13
2018-09-21T05:51:16.040Z,85.53
2018-09-21T05:53:45.033Z,85.10
2018-09-21T05:56:13.525Z,84.36
2018-09-21T05:58:41.980Z,84.42
2018-09-21T06:01:10.501Z,86.59
2018-09-21T06:03:38.910Z,84.48
2018-09-21T06:06:07.534Z,84.49
2018-09-21T06:08:35.980Z,84.12
2018-09-21T06:11:04.396Z,84.00
2018-09-21T06:13:32.855Z,84.44
2018-09-21T06:16:01.297Z,84.28
2018-09-21T06:18:29.837Z,86.06
2018-09-21T06:20:58.323Z,87.58
2018-09-21T06:23:27.108Z,86.57
2018-09-21T06:25:55.670Z,86.87
2018-09-21T06:28:24.240Z,84.90
2018-09-21T06:30:52.731Z,84.58
2018-09-21T06:33:21.220Z,84.58
2018-09-21T06:35:49.684Z,83.21
2018-09-21T06:38:18.917Z,80.89
2018-09-21T06:40:47.383Z,81.02
2018-09-21T06:43:15.921Z,80.43
2018-09-21T06:45:44.360Z,78.37
2018-09-21T06:48:12.834Z,79.80
2018-09-21T06:50:41.293Z,78.59
2018-09-21T06:53:09.756Z,77.47
2018-09-21T06:55:38.218Z,74.67
2018-09-21T06:58:06.675Z,73.90
2018-09-21T07:00:35.235Z,73.34
2018-09-21T07:03:04.869Z,73.43
2018-09-21T07:05:33.350Z,73.35
2018-09-21T07:08:01.779Z,73.79
2018-09-21T07:10:30.280Z,71.77
2018-09-21T07:12:58.681Z,70.55
2018-09-21T07:15:27.114Z,71.19
2018-09-21T07:17:56.269Z,70.61
2018-09-21T07:20:24.696Z,69.98
2018-09-21T07:22:53.939Z,68.55
2018-09-21T07:25:22.490Z,65.47
2018-09-21T07:27:51.643Z,64.33
2018-09-21T07:30:20.103Z,61.83
2018-09-21T07:32:48.562Z,60.25
2018-09-21T07:35:17.005Z,62.16
2018-09-21T07:37:45.539Z,61.00
2018-09-21T07:40:14.192Z,61.78
2018-09-21T07:42:42.897Z,61.57
2018-09-21T07:45:11.367Z,62.31
2018-09-21T07:47:39.817Z,61.82
2018-09-21T07:50:08.367Z,64.69
2018-09-21T07:52:36.809Z,63.97
2018-09-21T07:55:05.338Z,62.15
2018-09-21T07:57:33.886Z,62.93
2018-09-21T08:00:02.384Z,63.07
2018-09-21T08:02:30.816Z,64.15
2018-09-21T08:04:59.293Z,62.88
2018-09-21T08:07:27.771Z,61.42
2018-09-21T08:09:56.314Z,60.98
2018-09-21T08:12:25.076Z,61.92
2018-09-21T08:14:53.880Z,61.17
2018-09-21T08:17:22.349Z,59.29
2018-09-21T08:19:50.756Z,59.27
2018-09-21T08:22:19.221Z,58.90
2018-09-21T08:24:47.667Z,58.69
2018-09-21T08:27:18.528Z,57.41
2018-09-21T08:29:47.146Z,56.21
2018-09-21T08:32:15.663Z,56.79
2018-09-21T08:34:44.225Z,58.69
2018-09-21T08:37:13.097Z,56.82
2018-09-21T08:39:41.512Z,57.70
2018-09-21T08:42:09.995Z,59.46
2018-09-21T08:44:38.420Z,59.61
2018-09-21T08:47:06.847Z,60.31
2018-09-21T08:49:36.024Z,60.29
2018-09-21T08:52:04.498Z,59.05
2018-09-21T08:54:32.993Z,59.80
2018-09-21T08:57:01.459Z,58.19
2018-09-21T08:59:29.962Z,58.67
2018-09-21T09:01:58.420Z,57.70
2018-09-21T09:04:27.282Z,57.47
2018-09-21T09:06:56.888Z,55.77
2018-09-21T09:09:25.427Z,55.87
2018-09-21T09:11:54.080Z,55.42
2018-09-21T09:14:22.491Z,56.16
2018-09-21T09:16:50.959Z,53.38
2018-09-21T09:19:19.435Z,53.18
2018-09-21T09:21:48.003Z,51.98
2018-09-21T09:24:16.541Z,51.42
2018-09-21T09:26:45.641Z,51.79
2018-09-21T09:29:14.471Z,52.05
2018-09-21T09:31:43.705Z,52.15
2018-09-21T09:34:12.253Z,50.08
2018-09-21T09:36:41.603Z,50.72
2018-09-21T09:39:12.926Z,51.51
2018-09-21T09:41:41.675Z,51.44
2018-09-21T09:44:11.207Z,51.09
2018-09-21T09:46:39.725Z,50.92
2018-09-21T09:49:08.470Z,49.89
2018-09-21T09:51:36.906Z,50.32
2018-09-21T09:54:05.643Z,50.48
2018-09-21T09:56:34.122Z,50.60
2018-09-21T09:59:02.583Z,50.26
2018-09-21T10:01:32.045Z,49.37
2018-09-21T10:04:00.560Z,49.38
2018-09-21T10:06:29.051Z,46.93
2018-09-21T10:08:57.489Z,48.53
2018-09-21T10:11:26.981Z,47.46
2018-09-21T10:13:55.506Z,46.39
2018-09-21T10:16:24.119Z,45.80
2018-09-21T10:18:52.600Z,46.44
2018-09-21T10:21:21.073Z,45.29
2018-09-21T10:23:49.549Z,44.79
2018-09-21T10:26:18.084Z,43.67
2018-09-21T10:28:46.728Z,43.35
2018-09-21T10:31:15.907Z,44.07
2018-09-21T10:33:44.495Z,44.58
2018-09-21T10:36:12.862Z,45.76
2018-09-21T10:38:42.834Z,45.37
2018-09-21T10:41:11.333Z,45.43
2018-09-21T10:43:39.848Z,44.69
2018-09-21T10:46:08.322Z,44.17
2018-09-21T10:48:36.816Z,44.65
2018-09-21T10:51:06.352Z,46.09
2018-09-21T10:53:35.139Z,45.59
2018-09-21T10:56:03.632Z,47.53
2018-09-21T10:58:32.194Z,46.39
2018-09-21T11:01:01.525Z,47.27
2018-09-21T11:03:30.047Z,49.08
2018-09-21T11:05:58.539Z,49.79
2018-09-21T11:08:26.996Z,50.08
2018-09-21T11:10:55.439Z,51.09
2018-09-21T11:13:23.908Z,50.86
2018-09-21T11:15:52.362Z,51.46
2018-09-21T11:18:20.819Z,51.36
2018-09-21T11:20:49.284Z,50.99
2018-09-21T11:25:45.295Z,51.63
2018-09-21T11:28:14.398Z,53.06
2018-09-21T11:30:42.784Z,52.90
2018-09-21T11:33:11.318Z,54.58
2018-09-21T11:35:39.736Z,55.12
2018-09-21T11:38:08.190Z,56.20
2018-09-21T11:40:36.780Z,56.86
2018-09-21T11:43:05.176Z,59.55
2018-09-21T11:45:33.712Z,63.65
2018-09-21T11:48:03.085Z,65.08
2018-09-21T11:50:31.891Z,66.33
2018-09-21T11:53:00.467Z,68.15
2018-09-21T11:55:29.568Z,69.47
2018-09-21T11:57:58.080Z,69.18
2018-09-21T12:00:26.555Z,68.96
2018-09-21T12:02:55.025Z,69.53
2018-09-21T12:05:23.516Z,68.21
2018-09-21T12:07:52.392Z,68.57
2018-09-21T12:10:20.869Z,69.20
2018-09-21T12:12:49.362Z,69.22
2018-09-21T12:15:18.001Z,69.67
2018-09-21T12:17:46.565Z,71.71
2018-09-21T12:20:15.068Z,72.67
2018-09-21T12:22:43.558Z,72.91
2018-09-21T12:25:12.019Z,75.17
2018-09-21T12:27:40.547Z,74.51
2018-09-21T12:30:09.031Z,74.06
2018-09-21T12:32:37.514Z,76.00
2018-09-21T12:35:06.185Z,77.63
2018-09-21T12:37:34.663Z,79.05
2018-09-21T12:40:03.073Z,80.91
2018-09-21T12:42:31.563Z,80.93
2018-09-21T12:45:05.419Z,87.39
2018-09-21T12:47:33.879Z,86.17
2018-09-21T12:50:02.374Z,85.55
2018-09-21T12:52:30.888Z,85.84
2018-09-21T12:54:59.525Z,85.75
2018-09-21T12:57:28.203Z,85.53
2018-09-21T12:59:56.841Z,87.39
2018-09-21T13:02:25.387Z,86.56
2018-09-21T13:04:56.181Z,87.67
2018-09-21T13:07:24.833Z,87.65
2018-09-21T13:09:53.372Z,87.60
2018-09-21T13:12:22.003Z,87.44
2018-09-21T13:14:50.485Z,86.65
2018-09-21T13:17:19.022Z,87.15
2018-09-21T13:19:47.508Z,87.06
2018-09-21T13:22:16.876Z,87.31
2018-09-21T13:24:45.768Z,86.60
2018-09-21T13:27:14.427Z,88.70
2018-09-21T13:29:42.919Z,87.84
2018-09-21T13:32:11.364Z,88.14
2018-09-21T13:34:39.822Z,87.42
2018-09-21T13:37:08.309Z,87.80
2018-09-21T13:39:36.729Z,88.21
2018-09-21T13:42:05.165Z,88.69
2018-09-21T13:44:33.567Z,85.63
2018-09-21T13:47:02.043Z,85.90
2018-09-21T13:49:30.521Z,87.58
2018-09-21T13:51:59.108Z,89.50
2018-09-21T13:54:27.560Z,87.46
2018-09-21T13:56:56.359Z,85.23
2018-09-21T13:59:24.999Z,85.39
2018-09-21T14:01:54.351Z,83.61
2018-09-21T14:04:22.814Z,84.30
2018-09-21T14:06:51.268Z,83.97
2018-09-21T14:09:20.215Z,85.29
2018-09-21T14:11:48.773Z,85.66
2018-09-21T14:14:17.244Z,85.83
2018-09-21T14:16:45.671Z,84.39
2018-09-21T14:19:16.210Z,83.61
2018-09-21T14:21:44.633Z,85.31
2018-09-21T14:24:13.075Z,84.42
2018-09-21T14:26:41.496Z,84.33
2018-09-21T14:29:10.953Z,85.56
2018-09-21T14:31:39.339Z,84.44
2018-09-21T14:34:07.911Z,84.22
2018-09-21T14:36:36.431Z,84.30
2018-09-21T14:39:07.284Z,83.07
2018-09-21T14:41:36.802Z,83.05
2018-09-21T14:44:05.662Z,82.01
2018-09-21T14:46:34.550Z,83.01
2018-09-21T14:49:03.536Z,82.20
2018-09-21T14:51:31.937Z,84.04
2018-09-21T14:54:00.401Z,82.88
2018-09-21T14:56:29.029Z,82.02
2018-09-21T14:58:57.540Z,82.12
2018-09-21T15:01:25.993Z,82.01
2018-09-21T15:03:55.880Z,82.80
2018-09-21T15:06:25.106Z,81.15
2018-09-21T15:08:53.587Z,83.04
2018-09-21T15:11:22.047Z,81.16
2018-09-21T15:13:50.720Z,81.16
2018-09-21T15:16:19.235Z,82.35
2018-09-21T15:18:47.761Z,82.10
2018-09-21T15:21:16.801Z,82.44
2018-09-21T15:23:46.510Z,81.46
2018-09-21T15:26:15.836Z,81.69
2018-09-21T15:28:44.421Z,81.77
2018-09-21T15:31:12.844Z,81.19
2018-09-21T15:33:41.332Z,81.58
2018-09-21T15:36:09.711Z,82.15
2018-09-21T15:38:38.223Z,83.68
2018-09-21T15:41:06.667Z,81.38
2018-09-21T15:43:37.361Z,81.76
2018-09-21T15:46:05.793Z,82.27
2018-09-21T15:48:34.271Z,83.12
2018-09-21T15:51:03.396Z,81.41
2018-09-21T15:53:31.994Z,83.78
2018-09-21T15:56:00.523Z,83.48
2018-09-21T15:58:29.076Z,83.77
2018-09-21T16:00:57.507Z,82.94
2018-09-21T16:03:25.960Z,83.19
2018-09-21T16:05:54.459Z,83.66
2018-09-21T16:08:23.098Z,83.13
2018-09-21T16:10:51.722Z,83.65
2018-09-21T16:13:20.459Z,84.61
2018-09-21T16:15:48.899Z,82.76
2018-09-21T16:18:17.360Z,83.26
2018-09-21T16:20:46.249Z,83.48
2018-09-21T16:23:14.741Z,82.75
2018-09-21T16:25:43.199Z,83.53
2018-09-21T16:28:11.921Z,83.38
2018-09-21T16:30:40.423Z,83.92
2018-09-21T16:33:08.868Z,83.15
2018-09-21T16:35:37.439Z,82.55
2018-09-21T16:38:06.489Z,82.33
2018-09-21T16:40:35.625Z,82.71
2018-09-21T16:43:04.171Z,82.54
2018-09-21T16:45:32.616Z,83.11
2018-09-21T16:48:01.351Z,82.41
2018-09-21T16:50:29.874Z,81.98
2018-09-21T16:52:58.436Z,81.49
2018-09-21T16:55:27.172Z,79.72
2018-09-21T16:57:55.754Z,79.27
2018-09-21T17:00:24.265Z,80.92
2018-09-21T17:02:52.784Z,81.25
2018-09-21T17:05:21.342Z,79.72
2018-09-21T17:07:49.836Z,77.92
2018-09-21T17:10:18.352Z,78.66
2018-09-21T17:12:47.203Z,76.54
2018-09-21T17:15:15.718Z,77.81
2018-09-21T17:17:44.186Z,76.36
2018-09-21T17:20:12.764Z,77.68
2018-09-21T17:22:41.273Z,78.06
2018-09-21T17:25:10.670Z,76.58
2018-09-21T17:27:39.191Z,77.38
2018-09-21T17:30:08.759Z,77.42
2018-09-21T17:32:37.276Z,77.59
2018-09-21T17:35:06.744Z,77.35
2018-09-21T17:37:35.295Z,77.72
2018-09-21T17:40:03.883Z,76.72
2018-09-21T17:42:32.465Z,76.50
2018-09-21T17:45:01.403Z,76.36
2018-09-21T17:47:29.917Z,76.56
2018-09-21T17:49:58.437Z,75.69
2018-09-21T17:52:27.032Z,74.96
2018-09-21T17:54:56.822Z,74.79
2018-09-21T17:57:25.326Z,75.30
2018-09-21T17:59:53.929Z,73.31
2018-09-21T18:02:22.404Z,72.84
2018-09-21T18:04:50.991Z,71.48
2018-09-21T18:07:20.125Z,71.57
2018-09-21T18:09:49.884Z,71.68
2018-09-21T18:12:18.345Z,71.46
2018-09-21T18:14:47.519Z,71.12
2018-09-21T18:17:16.680Z,70.38
2018-09-21T18:19:45.180Z,70.10
2018-09-21T18:22:13.738Z,69.48
2018-09-21T18:24:42.373Z,68.98
2018-09-21T18:27:11.333Z,68.89
2018-09-21T18:29:40.019Z,69.05
2018-09-21T18:32:08.498Z,68.29
2018-09-21T18:34:37.708Z,69.04
2018-09-21T18:37:07.103Z,69.41
2018-09-21T18:39:35.792Z,70.25
2018-09-21T18:42:04.228Z,70.02
2018-09-21T18:44:32.825Z,70.92
2018-09-21T18:47:01.341Z,70.82
2018-09-21T18:49:29.787Z,71.57
2018-09-21T18:51:58.312Z,70.58
2018-09-21T18:54:26.791Z,70.60
2018-09-21T18:56:56.403Z,70.28
2018-09-21T18:59:24.936Z,70.27
2018-09-21T19:01:53.495Z,70.18
2018-09-21T19:04:21.988Z,69.98
2018-09-21T19:06:50.541Z,68.82
2018-09-21T19:09:19.041Z,68.42
2018-09-21T19:11:47.487Z,67.84
2018-09-21T19:14:18.136Z,67.64
2018-09-21T19:16:46.801Z,68.77
2018-09-21T19:19:15.348Z,68.79
2018-09-21T19:21:44.515Z,68.39
2018-09-21T19:24:13.371Z,67.60
2018-09-21T19:26:42.399Z,67.19
2018-09-21T19:29:10.855Z,67.36
2018-09-21T19:31:39.475Z,68.06
2018-09-21T19:34:10.473Z,69.22
2018-09-21T19:36:39.773Z,69.33
2018-09-21T19:39:10.689Z,70.15
2018-09-21T19:41:39.204Z,70.79
2018-09-21T19:44:07.775Z,69.80
2018-09-21T19:46:36.415Z,69.48
2018-09-21T19:49:10.259Z,68.86
2018-09-21T19:51:38.872Z,69.25
2018-09-21T19:54:07.455Z,70.02
2018-09-21T19:56:37.123Z,70.48
2018-09-21T19:59:05.868Z,69.54
2018-09-21T20:01:35.844Z,70.46
2018-09-21T20:04:04.635Z,70.37
2018-09-21T20:06:33.127Z,70.69
2018-09-21T20:09:01.751Z,70.01
2018-09-21T20:11:30.316Z,70.60
2018-09-21T20:13:58.872Z,69.06
2018-09-21T20:16:27.367Z,69.68
2018-09-21T20:18:55.944Z,69.42
2018-09-21T20:21:24.754Z,68.50
2018-09-21T20:23:53.365Z,69.62
2018-09-21T20:26:21.837Z,69.01
2018-09-21T20:28:50.420Z,67.30
2018-09-21T20:31:23.924Z,67.26
2018-09-21T20:33:52.436Z,68.79
2018-09-21T20:36:20.984Z,68.95
2018-09-21T20:38:49.516Z,68.03
2018-09-21T20:41:18.138Z,67.52
2018-09-21T20:43:46.723Z,67.10
2018-09-21T20:46:15.284Z,66.57
2018-09-21T20:48:43.784Z,65.20
2018-09-21T20:51:12.431Z,65.99
2018-09-21T20:53:40.925Z,66.42
2018-09-21T20:56:09.590Z,66.39
2018-09-21T20:58:37.997Z,65.37
2018-09-21T21:01:07.091Z,64.37
2018-09-21T21:03:35.666Z,64.70
2018-09-21T21:06:04.159Z,65.72
2018-09-21T21:08:32.727Z,64.84
2018-09-21T21:11:01.284Z,64.88
2018-09-21T21:13:29.754Z,64.25
2018-09-21T21:15:59.090Z,64.83
2018-09-21T21:18:27.581Z,64.31
2018-09-21T21:20:56.060Z,63.53
2018-09-21T21:23:24.518Z,63.53
2018-09-21T21:25:53.055Z,63.36
2018-09-21T21:28:22.451Z,63.23
2018-09-21T21:30:50.904Z,63.40
2018-09-21T21:33:20.036Z,61.95
2018-09-21T21:35:49.576Z,61.71
2018-09-21T21:38:19.024Z,63.12
2018-09-21T21:40:48.098Z,63.17
2018-09-21T21:43:16.751Z,62.60
2018-09-21T21:45:45.223Z,62.62
2018-09-21T21:48:15.056Z,62.12
2018-09-21T21:50:46.439Z,61.64
2018-09-21T21:53:16.729Z,61.41
2018-09-21T21:55:45.422Z,61.59
2018-09-21T21:58:13.940Z,61.45
2018-09-21T22:00:47.414Z,61.68
2018-09-21T22:03:15.892Z,61.28
2018-09-21T22:05:44.373Z,60.99
2018-09-21T22:08:12.942Z,61.45
2018-09-21T22:10:41.359Z,60.69
2018-09-21T22:13:15.364Z,60.83
2018-09-21T22:15:43.871Z,62.41
2018-09-21T22:18:12.333Z,61.82
2018-09-21T22:20:40.803Z,61.38
2018-09-21T22:23:09.324Z,62.57
2018-09-21T22:25:37.842Z,62.57
2018-09-21T22:28:06.456Z,62.48
2018-09-21T22:30:34.975Z,63.03
2018-09-21T22:33:03.426Z,62.93
2018-09-21T22:35:31.890Z,63.88
2018-09-21T22:38:00.455Z,64.44
2018-09-21T22:40:29.031Z,65.10
2018-09-21T22:42:57.527Z,65.18
2018-09-21T22:45:25.937Z,66.13
2018-09-21T22:47:54.533Z,65.37
2018-09-21T22:50:23.708Z,66.31
2018-09-21T22:52:52.279Z,66.53
2018-09-21T22:55:20.839Z,66.38
2018-09-21T22:57:49.584Z,66.95
2018-09-21T23:00:18.448Z,67.02
2018-09-21T23:02:46.909Z,67.65
2018-09-21T23:05:16.111Z,68.26
2018-09-21T23:07:44.731Z,67.59
2018-09-21T23:10:13.311Z,67.16
2018-09-21T23:12:41.973Z,66.91
2018-09-21T23:15:10.490Z,68.05
2018-09-21T23:17:38.957Z,67.25
2018-09-21T23:20:07.501Z,67.96
2018-09-21T23:22:36.109Z,67.76
2018-09-21T23:25:04.580Z,67.73
2018-09-21T23:27:33.066Z,67.83
2018-09-21T23:30:01.571Z,67.31
2018-09-21T23:32:30.044Z,68.09
2018-09-21T23:34:58.590Z,68.07
2018-09-21T23:37:26.978Z,69.15
2018-09-21T23:39:55.426Z,69.18
2018-09-21T23:42:23.830Z,69.44
2018-09-21T23:44:52.309Z,71.05
2018-09-21T23:47:20.776Z,70.64
2018-09-21T23:49:49.295Z,70.36
2018-09-21T23:52:17.855Z,71.05
2018-09-21T23:54:46.292Z,71.43
2018-09-21T23:57:14.734Z,72.86
2018-09-21T23:59:43.187Z,72.59
